Time;durP1;ratioP1;P1;durP2;ratioP2;P2;SDS_P1;SDS_P2;PMS_P1;PMS_P2;Temp;Humidity;BMP_temperature;BMP_pressure;BME280_temperature;BME280_humidity;BME280_pressure;Samples;Min_cycle;Max_cycle;Signal;HPM_P1;HPM_P2
2024/04/07 00:00:51;;;;;;;16.98;2.83;;;;;;;7.93;100.00;97803.22;4737445;29;20986;-82
2024/04/07 00:03:21;;;;;;;14.82;2.00;;;;;;;7.92;100.00;97800.78;4766331;30;20070;-84
2024/04/07 00:05:56;;;;;;;14.05;1.83;;;;;;;7.95;100.00;97808.28;4765217;29;20481;-80
2024/04/07 00:08:24;;;;;;;17.50;2.42;;;;;;;7.97;100.00;97806.28;4760530;29;20097;-85
2024/04/07 00:10:49;;;;;;;15.10;2.25;;;;;;;7.91;100.00;97818.41;4759699;30;20050;-81
2024/04/07 00:13:15;;;;;;;20.95;2.58;;;;;;;7.90;100.00;97821.22;4774752;29;20065;-80
2024/04/07 00:15:41;;;;;;;18.85;2.65;;;;;;;7.84;100.00;97814.88;4767622;30;20058;-79
2024/04/07 00:18:07;;;;;;;11.65;1.88;;;;;;;7.80;100.00;97793.41;4754107;30;20052;-83
2024/04/07 00:20:40;;;;;;;28.00;5.15;;;;;;;7.78;100.00;97818.28;4756604;30;20062;-84
2024/04/07 00:23:06;;;;;;;13.45;2.00;;;;;;;7.74;100.00;97823.09;4763236;30;20039;-82
2024/04/07 00:25:32;;;;;;;12.45;1.75;;;;;;;7.74;100.00;97822.31;4750195;29;20051;-82
2024/04/07 00:28:18;;;;;;;10.63;1.85;;;;;;;7.78;100.00;97826.19;4751190;30;20035;-83
2024/04/07 00:30:44;;;;;;;8.75;1.98;;;;;;;7.73;100.00;97826.75;4733739;30;20136;-81
2024/04/07 00:33:10;;;;;;;11.43;1.95;;;;;;;7.71;100.00;97812.19;4744085;30;20043;-82
2024/04/07 00:35:36;;;;;;;8.80;1.63;;;;;;;7.72;100.00;97814.63;4732896;30;20058;-81
2024/04/07 00:38:02;;;;;;;14.75;2.28;;;;;;;7.67;100.00;97807.31;4746467;29;20046;-81
2024/04/07 00:40:27;;;;;;;17.60;2.63;;;;;;;7.62;100.00;97806.22;4756790;30;20555;-82
2024/04/07 00:42:55;;;;;;;13.48;1.98;;;;;;;7.62;100.00;97817.56;4736788;29;20051;-81
2024/04/07 00:45:26;;;;;;;15.82;2.45;;;;;;;7.61;100.00;97812.50;4732605;30;20071;-81
2024/04/07 00:47:52;;;;;;;18.15;2.10;;;;;;;7.59;100.00;97822.38;4774819;29;20122;-78
2024/04/07 00:50:18;;;;;;;11.55;1.83;;;;;;;7.62;100.00;97811.50;4766460;29;20046;-79
2024/04/07 00:52:45;;;;;;;17.52;3.47;;;;;;;7.63;100.00;97810.50;4765752;30;20051;-80
2024/04/07 00:55:11;;;;;;;17.25;3.03;;;;;;;7.70;100.00;97814.00;4748399;29;20040;-81
2024/04/07 00:57:38;;;;;;;16.77;2.60;;;;;;;7.76;100.00;97812.41;4752105;30;20047;-78
2024/04/07 01:00:04;;;;;;;15.10;2.60;;;;;;;7.76;100.00;97804.50;4765960;29;20589;-85
2024/04/07 01:02:30;;;;;;;16.17;3.30;;;;;;;7.79;100.00;97809.38;4749312;30;20071;-81
2024/04/07 01:04:56;;;;;;;22.15;3.17;;;;;;;7.79;100.00;97798.88;4763785;29;20079;-79
2024/04/07 01:07:22;;;;;;;20.85;3.85;;;;;;;7.80;100.00;97817.09;4772589;29;20039;-81
2024/04/07 01:09:49;;;;;;;23.30;3.53;;;;;;;7.83;100.00;97797.50;4745865;30;20536;-82
2024/04/07 01:12:20;;;;;;;26.23;4.28;;;;;;;7.91;100.00;97807.88;4749887;29;20051;-79
2024/04/07 01:14:48;;;;;;;23.00;3.40;;;;;;;7.94;100.00;97794.34;4791746;29;20064;-85
2024/04/07 01:17:14;;;;;;;21.08;3.17;;;;;;;7.97;100.00;97790.50;4766502;29;20086;-82
2024/04/07 01:19:39;;;;;;;28.15;3.55;;;;;;;8.02;100.00;97795.19;4746572;30;20486;-82
2024/04/07 01:22:05;;;;;;;26.23;3.65;;;;;;;8.09;100.00;97800.47;4744497;30;20108;-80
2024/04/07 01:24:33;;;;;;;20.90;3.38;;;;;;;8.13;100.00;97788.56;4733784;30;20594;-81
2024/04/07 01:26:59;;;;;;;28.35;3.90;;;;;;;8.15;100.00;97800.53;4765175;29;20074;-86
2024/04/07 01:29:25;;;;;;;31.70;4.45;;;;;;;8.21;100.00;97793.66;4756349;29;20133;-85
2024/04/07 01:31:51;;;;;;;26.67;3.50;;;;;;;8.23;100.00;97809.25;4757400;30;20043;-80
2024/04/07 01:34:18;;;;;;;23.73;3.42;;;;;;;8.26;100.00;97793.91;4752811;30;20066;-81
2024/04/07 01:36:54;;;;;;;20.67;3.38;;;;;;;8.30;100.00;97808.28;4721318;29;20047;-81
2024/04/07 01:39:21;;;;;;;16.75;2.97;;;;;;;8.32;100.00;97811.53;4743166;30;20405;-78
2024/04/07 01:41:46;;;;;;;13.73;2.50;;;;;;;8.31;100.00;97809.09;4763290;30;20043;-82
2024/04/07 01:44:12;;;;;;;13.82;2.30;;;;;;;8.29;100.00;97830.34;4763781;29;20054;-80
2024/04/07 01:46:39;;;;;;;16.77;2.45;;;;;;;8.28;100.00;97830.53;4747616;29;20041;-80
2024/04/07 01:49:05;;;;;;;25.73;3.15;;;;;;;8.24;100.00;97829.28;4760944;30;20693;-80
2024/04/07 01:51:30;;;;;;;16.90;3.08;;;;;;;8.21;100.00;97830.50;4760651;29;20043;-79
2024/04/07 01:53:56;;;;;;;16.88;2.45;;;;;;;8.20;100.00;97821.00;4766742;29;20099;-83
2024/04/07 01:56:22;;;;;;;13.88;1.83;;;;;;;8.19;100.00;97837.78;4760163;29;20077;-79
2024/04/07 01:58:51;;;;;;;9.93;1.73;;;;;;;8.18;100.00;97830.88;4763977;30;20096;-82
2024/04/07 02:01:17;;;;;;;8.35;1.45;;;;;;;8.06;100.00;97831.44;4751485;30;20400;-81
2024/04/07 02:03:45;;;;;;;13.50;1.50;;;;;;;8.00;100.00;97834.00;4733862;29;20058;-82
2024/04/07 02:06:12;;;;;;;11.57;1.50;;;;;;;7.91;100.00;97834.19;4749086;29;20047;-83
2024/04/07 02:08:38;;;;;;;8.85;1.20;;;;;;;7.88;100.00;97846.88;4762255;30;20039;-80
2024/04/07 02:11:04;;;;;;;6.30;1.27;;;;;;;7.79;100.00;97854.09;4762542;30;20500;-80
2024/04/07 02:13:30;;;;;;;5.88;0.85;;;;;;;7.74;100.00;97859.13;4742532;30;20101;-82
2024/04/07 02:15:59;;;;;;;8.98;1.23;;;;;;;7.70;100.00;97850.78;4756289;29;20056;-80
2024/04/07 02:18:26;;;;;;;1.30;0.50;;;;;;;7.60;100.00;97853.75;4762232;30;20065;-85
2024/04/07 02:20:52;;;;;;;4.00;0.95;;;;;;;7.60;100.00;97861.63;4762990;30;20046;-80
2024/04/07 02:23:19;;;;;;;7.25;1.13;;;;;;;7.57;100.00;97859.38;4749044;30;20043;-80
2024/04/07 02:25:46;;;;;;;6.80;0.95;;;;;;;7.55;100.00;97851.69;4759280;30;20082;-81
2024/04/07 02:28:12;;;;;;;5.88;1.42;;;;;;;7.50;100.00;97848.81;4760011;29;20050;-82
2024/04/07 02:30:42;;;;;;;8.80;1.23;;;;;;;7.47;100.00;97837.88;4761943;29;20038;-80
2024/04/07 02:33:08;;;;;;;11.38;1.58;;;;;;;7.45;100.00;97853.81;4739952;29;20043;-81
2024/04/07 02:35:37;;;;;;;10.63;1.98;;;;;;;7.49;100.00;97852.44;4758050;30;20112;-81
2024/04/07 02:38:10;;;;;;;11.25;1.23;;;;;;;7.51;100.00;97857.50;4760454;30;20046;-84
2024/04/07 02:40:36;;;;;;;9.90;1.27;;;;;;;7.49;100.00;97854.25;4774284;29;20039;-81
2024/04/07 02:43:05;;;;;;;10.38;2.15;;;;;;;7.51;100.00;97857.50;4743240;29;20779;-85
2024/04/07 02:48:15;;;;;;;10.13;1.17;;;;;;;7.60;100.00;97855.56;4775800;29;20067;-82
2024/04/07 02:50:40;;;;;;;12.82;1.50;;;;;;;7.65;100.00;97842.66;4749920;30;20077;-84
2024/04/07 02:53:07;;;;;;;14.00;1.15;;;;;;;7.67;100.00;97845.91;4767533;29;20032;-82
2024/04/07 02:55:33;;;;;;;8.15;1.25;;;;;;;7.70;100.00;97845.53;4733109;29;20081;-83
2024/04/07 02:58:01;;;;;;;10.55;1.20;;;;;;;7.73;100.00;97855.69;4768145;29;20043;-87
2024/04/07 03:00:27;;;;;;;7.63;1.17;;;;;;;7.74;100.00;97857.28;4766384;30;20523;-82
2024/04/07 03:03:02;;;;;;;8.48;1.02;;;;;;;7.73;100.00;97844.34;4747698;29;20047;-82
2024/04/07 03:05:28;;;;;;;11.88;1.77;;;;;;;7.74;100.00;97853.88;4768477;30;20096;-83
2024/04/07 03:07:54;;;;;;;9.95;1.38;;;;;;;7.75;100.00;97845.78;4745098;29;20569;-82
2024/04/07 03:10:20;;;;;;;10.45;2.25;;;;;;;7.74;100.00;97851.22;4761175;30;20493;-81
2024/04/07 03:12:46;;;;;;;4.93;0.75;;;;;;;7.70;100.00;97842.91;4748460;30;20039;-82
2024/04/07 03:15:11;;;;;;;7.10;1.85;;;;;;;7.73;100.00;97841.69;4733042;30;20742;-84
2024/04/07 03:17:37;;;;;;;8.98;1.05;;;;;;;7.70;100.00;97840.28;4734013;29;20552;-80
2024/04/07 03:20:07;;;;;;;13.80;1.17;;;;;;;7.69;100.00;97843.91;4751979;29;20435;-84
2024/04/07 03:22:32;;;;;;;14.55;2.53;;;;;;;7.69;100.00;97838.66;4769862;30;20047;-82
2024/04/07 03:24:58;;;;;;;11.27;1.30;;;;;;;7.63;100.00;97852.56;4774039;29;20038;-83
2024/04/07 03:27:27;;;;;;;8.43;1.13;;;;;;;7.67;100.00;97822.25;4765915;30;20047;-80
2024/04/07 03:29:53;;;;;;;14.43;1.92;;;;;;;7.63;100.00;97848.09;4754415;29;20085;-81
2024/04/07 03:32:19;;;;;;;14.10;1.70;;;;;;;7.64;100.00;97849.75;4768145;30;20074;-79
2024/04/07 03:34:47;;;;;;;11.30;1.42;;;;;;;7.63;100.00;97852.56;4762136;29;20704;-80
2024/04/07 03:37:13;;;;;;;8.13;1.10;;;;;;;7.63;100.00;97847.31;4751253;29;20039;-79
2024/04/07 03:39:39;;;;;;;13.32;1.98;;;;;;;7.61;100.00;97850.13;4765008;30;20073;-79
2024/04/07 03:42:06;;;;;;;7.75;1.23;;;;;;;7.68;100.00;97863.31;4748743;29;20043;-80
2024/04/07 03:44:36;;;;;;;12.27;2.08;;;;;;;7.67;100.00;97859.06;4780730;29;20031;-82
2024/04/07 03:47:03;;;;;;;14.88;1.48;;;;;;;7.68;100.00;97868.56;4744664;29;20934;-80
2024/04/07 03:49:28;;;;;;;14.60;2.40;;;;;;;7.67;100.00;97851.19;4750809;30;20051;-81
2024/04/07 03:51:54;;;;;;;11.60;1.55;;;;;;;7.70;100.00;97856.06;4749738;29;20035;-82
2024/04/07 03:54:20;;;;;;;7.80;1.33;;;;;;;7.72;100.00;97858.50;4761548;30;20043;-81
2024/04/07 03:56:49;;;;;;;8.63;0.98;;;;;;;7.72;100.00;97859.31;4765440;29;20656;-88
2024/04/07 03:59:15;;;;;;;10.73;1.88;;;;;;;7.71;100.00;97856.88;4736525;29;20047;-81
2024/04/07 04:01:41;;;;;;;12.45;1.60;;;;;;;7.69;100.00;97863.13;4762855;30;20046;-82
2024/04/07 04:04:08;;;;;;;5.95;1.02;;;;;;;7.68;100.00;97864.13;4752068;29;20051;-80
2024/04/07 04:06:42;;;;;;;7.63;1.13;;;;;;;7.69;100.00;97864.97;4767938;30;20095;-85
2024/04/07 04:09:09;;;;;;;8.07;1.23;;;;;;;7.63;100.00;97863.09;4754208;29;20089;-81
2024/04/07 04:11:36;;;;;;;5.20;0.77;;;;;;;7.60;100.00;97861.63;4748549;30;20050;-82
2024/04/07 04:14:02;;;;;;;4.20;0.80;;;;;;;7.59;100.00;97849.50;4750062;30;20047;-81
2024/04/07 04:16:28;;;;;;;4.35;0.70;;;;;;;7.54;100.00;97855.31;4749068;29;20078;-81
2024/04/07 04:18:54;;;;;;;5.75;0.68;;;;;;;7.50;100.00;97854.06;4766229;29;20066;-82
2024/04/07 04:21:22;;;;;;;8.60;0.95;;;;;;;7.48;100.00;97860.50;4766516;29;20104;-82
2024/04/07 04:23:48;;;;;;;5.88;0.55;;;;;;;7.41;100.00;97845.50;4752510;30;20047;-81
2024/04/07 04:26:15;;;;;;;6.03;0.80;;;;;;;7.40;100.00;97861.47;4748144;29;20050;-84
2024/04/07 04:28:40;;;;;;;3.97;0.50;;;;;;;7.41;100.00;97868.31;4766796;30;20050;-79
2024/04/07 04:31:08;;;;;;;4.65;0.82;;;;;;;7.38;100.00;97863.44;4759566;29;20042;-86
2024/04/07 04:33:34;;;;;;;5.55;0.85;;;;;;;7.38;100.00;97868.69;4758726;30;20085;-83
2024/04/07 04:35:59;;;;;;;3.00;0.47;;;;;;;7.34;100.00;97870.09;4745955;29;20047;-83
2024/04/07 04:38:28;;;;;;;4.45;1.20;;;;;;;7.39;100.00;97881.66;4778807;29;20505;-81
2024/04/07 04:41:00;;;;;;;8.05;0.70;;;;;;;7.37;100.00;97896.81;4779893;29;20485;-81
2024/04/07 04:43:26;;;;;;;5.35;0.70;;;;;;;7.39;100.00;97899.25;4749206;29;20044;-83
2024/04/07 04:46:07;;;;;;;4.68;0.55;;;;;;;7.36;100.00;97891.75;4765255;29;20044;-84
2024/04/07 04:48:34;;;;;;;3.22;0.60;;;;;;;7.32;100.00;97910.53;4758020;30;20429;-81
2024/04/07 04:51:00;;;;;;;5.38;0.70;;;;;;;7.29;100.00;97908.22;4736258;29;20118;-84
2024/04/07 04:53:27;;;;;;;7.07;0.63;;;;;;;7.30;100.00;97909.06;4761333;29;20062;-81
2024/04/07 04:55:53;;;;;;;10.13;0.75;;;;;;;7.31;100.00;97910.72;4749156;29;20825;-83
2024/04/07 04:58:22;;;;;;;7.07;0.85;;;;;;;7.29;100.00;97921.38;4747932;29;20043;-83
2024/04/07 05:00:48;;;;;;;5.93;0.93;;;;;;;7.27;100.00;97923.41;4764999;30;21521;-83
2024/04/07 05:03:14;;;;;;;8.82;0.88;;;;;;;7.28;100.00;97939.94;4763943;29;20074;-81
2024/04/07 05:05:40;;;;;;;7.35;0.77;;;;;;;7.28;100.00;97926.81;4757817;29;20568;-82
2024/04/07 05:08:07;;;;;;;5.03;1.10;;;;;;;7.27;100.00;97923.41;4761823;29;20134;-81
2024/04/07 05:10:34;;;;;;;10.50;1.10;;;;;;;7.26;100.00;97924.38;4763352;30;20485;-88
2024/04/07 05:13:00;;;;;;;8.98;0.80;;;;;;;7.24;100.00;97936.06;4726001;29;20043;-88
2024/04/07 05:15:27;;;;;;;6.75;1.08;;;;;;;7.25;100.00;97946.41;4767406;30;20047;-81
2024/04/07 05:17:53;;;;;;;6.03;1.17;;;;;;;7.25;100.00;97950.84;4773804;29;20083;-78
2024/04/07 05:20:19;;;;;;;9.00;0.88;;;;;;;7.23;100.00;97951.00;4741541;30;20430;-82
2024/04/07 05:22:45;;;;;;;9.35;1.13;;;;;;;7.22;100.00;97954.66;4750957;29;20136;-82
2024/04/07 05:25:36;;;;;;;10.00;1.42;;;;;;;7.28;100.00;97955.72;4764779;30;20600;-86
2024/04/07 05:28:02;;;;;;;11.95;1.67;;;;;;;7.22;100.00;97959.09;4754338;29;20108;-83
2024/04/07 05:30:27;;;;;;;7.63;1.17;;;;;;;7.20;100.00;97957.47;4756847;30;20043;-81
2024/04/07 05:32:54;;;;;;;7.85;1.20;;;;;;;7.22;100.00;97970.41;4739959;29;20453;-81
2024/04/07 05:35:27;;;;;;;8.93;1.63;;;;;;;7.26;100.00;97974.28;4762888;30;20040;-83
2024/04/07 05:37:57;;;;;;;6.82;1.20;;;;;;;7.26;100.00;97970.88;4747286;29;20063;-82
2024/04/07 05:40:22;;;;;;;13.90;1.25;;;;;;;7.28;100.00;97976.75;4752865;30;20112;-83
2024/04/07 05:42:48;;;;;;;11.63;1.35;;;;;;;7.29;100.00;97987.06;4765507;29;20078;-82
2024/04/07 05:45:23;;;;;;;7.20;1.10;;;;;;;7.30;100.00;97985.25;4749535;30;20040;-84
2024/04/07 05:47:53;;;;;;;11.52;1.42;;;;;;;7.33;100.00;97979.63;4776226;29;20047;-82
2024/04/07 05:50:20;;;;;;;13.05;1.63;;;;;;;7.35;100.00;97990.78;4762247;30;20039;-83
2024/04/07 05:52:46;;;;;;;11.20;1.10;;;;;;;7.36;100.00;97992.41;4735178;29;20040;-83
2024/04/07 05:55:12;;;;;;;10.65;1.48;;;;;;;7.37;100.00;97991.44;4736032;30;20039;-82
2024/04/07 05:57:39;;;;;;;11.77;1.20;;;;;;;7.47;100.00;98003.47;4753014;30;20042;-83
2024/04/07 06:00:08;;;;;;;8.50;1.50;;;;;;;7.46;100.00;98000.00;4751883;29;20570;-83
2024/04/07 06:02:37;;;;;;;14.38;2.75;;;;;;;7.48;100.00;98012.97;4770587;29;20054;-81
2024/04/07 06:05:04;;;;;;;10.25;1.55;;;;;;;7.48;100.00;98003.28;4737528;29;20036;-85
2024/04/07 06:07:30;;;;;;;17.55;1.83;;;;;;;7.52;100.00;98008.94;4760987;30;20096;-82
2024/04/07 06:09:56;;;;;;;12.18;1.75;;;;;;;7.54;100.00;98018.31;4767999;29;20035;-79
2024/04/07 06:12:22;;;;;;;11.02;2.05;;;;;;;7.61;100.00;98021.00;4753740;30;20035;-80
2024/04/07 06:14:48;;;;;;;16.13;3.22;;;;;;;7.67;100.00;98017.63;4763023;30;20408;-84
2024/04/07 06:17:17;;;;;;;13.18;1.52;;;;;;;7.78;100.00;98029.47;4739355;29;20057;-85
2024/04/07 06:19:43;;;;;;;15.68;2.05;;;;;;;7.84;100.00;98022.66;4752739;29;20134;-81
2024/04/07 06:22:09;;;;;;;16.10;1.52;;;;;;;7.89;100.00;98020.28;4764546;29;20683;-81
2024/04/07 06:24:34;;;;;;;13.30;2.10;;;;;;;7.99;100.00;98029.69;4735803;29;20039;-84
2024/04/07 06:27:00;;;;;;;7.80;1.05;;;;;;;8.05;100.00;98035.00;4740787;30;20069;-87
2024/04/07 06:29:26;;;;;;;15.25;2.00;;;;;;;8.10;100.00;98044.16;4764926;30;20046;-82
2024/04/07 06:31:52;;;;;;;6.82;1.17;;;;;;;8.16;100.00;98051.28;4762877;29;20196;-83
2024/04/07 06:34:18;;;;;;;6.95;1.33;;;;;;;8.26;100.00;98043.91;4757495;30;20047;-80
2024/04/07 06:36:43;;;;;;;15.80;2.13;;;;;;;8.39;100.00;98052.91;4744700;30;20036;-79
2024/04/07 06:39:09;;;;;;;11.00;1.67;;;;;;;8.52;100.00;98055.66;4750447;29;20790;-84
2024/04/07 06:41:35;;;;;;;8.27;1.27;;;;;;;8.68;100.00;98056.41;4752286;29;20405;-82
2024/04/07 06:44:04;;;;;;;19.67;1.80;;;;;;;8.86;100.00;98055.09;4765738;29;20063;-80
2024/04/07 06:46:29;;;;;;;9.38;1.90;;;;;;;8.94;100.00;98060.22;4761046;30;20036;-79
2024/04/07 06:48:55;;;;;;;8.30;1.75;;;;;;;9.05;100.00;98057.06;4766711;29;20092;-80
2024/04/07 06:51:22;;;;;;;14.15;1.50;;;;;;;9.13;100.00;98057.91;4732493;29;20133;-82
2024/04/07 06:53:48;;;;;;;13.35;1.95;;;;;;;9.16;100.00;98070.69;4749809;30;20035;-84
2024/04/07 06:56:14;;;;;;;10.43;1.85;;;;;;;9.26;100.00;98062.44;4762516;30;20558;-80
2024/04/07 06:58:40;;;;;;;17.38;2.13;;;;;;;9.38;100.00;98066.16;4750977;30;20046;-82
2024/04/07 07:01:06;;;;;;;14.60;2.35;;;;;;;9.42;100.00;98064.78;4747555;30;20505;-83
2024/04/07 07:03:31;;;;;;;16.48;2.15;;;;;;;9.51;100.00;98062.75;4752194;30;20044;-83
2024/04/07 07:05:57;;;;;;;16.48;2.00;;;;;;;9.64;100.00;98079.66;4766490;29;20047;-84
2024/04/07 07:08:23;;;;;;;13.45;1.92;;;;;;;9.77;100.00;98079.72;4752125;30;20540;-85
2024/04/07 07:10:59;;;;;;;15.70;1.85;;;;;;;9.85;100.00;98094.56;4735832;29;20047;-82
2024/04/07 07:13:30;;;;;;;11.48;1.48;;;;;;;9.97;100.00;98093.97;4748366;30;20039;-82
2024/04/07 07:15:57;;;;;;;15.10;3.35;;;;;;;10.03;100.00;98088.69;4760681;29;20108;-80
2024/04/07 07:18:23;;;;;;;11.38;2.20;;;;;;;10.07;100.00;98091.75;4767164;29;20134;-79
2024/04/07 07:20:49;;;;;;;14.27;2.03;;;;;;;10.12;100.00;98094.63;4765649;30;20114;-82
2024/04/07 07:23:15;;;;;;;13.35;2.13;;;;;;;10.07;100.00;98096.22;4752888;30;20047;-82
2024/04/07 07:25:44;;;;;;;10.68;1.67;;;;;;;10.22;100.00;98102.16;4752717;30;20039;-83
2024/04/07 07:28:13;;;;;;;10.80;1.40;;;;;;;10.25;100.00;98112.31;4740414;29;20070;-80
2024/04/07 07:30:38;;;;;;;11.23;1.50;;;;;;;10.21;100.00;98108.44;4773849;29;20027;-81
2024/04/07 07:33:05;;;;;;;8.02;1.73;;;;;;;10.28;100.00;98117.22;4740964;29;20074;-81
2024/04/07 07:35:31;;;;;;;9.18;1.52;;;;;;;10.38;100.00;98131.84;4756863;29;20100;-81
2024/04/07 07:37:57;;;;;;;5.90;1.38;;;;;;;10.47;100.00;98119.28;4771292;30;20436;-81
2024/04/07 07:40:22;;;;;;;5.68;1.23;;;;;;;10.46;100.00;98136.97;4766951;29;20096;-84
2024/04/07 07:42:48;;;;;;;11.05;1.38;;;;;;;10.43;100.00;98135.50;4752955;29;20039;-83
2024/04/07 07:45:16;;;;;;;15.40;2.60;;;;;;;10.51;100.00;98144.28;4752889;29;20054;-81
2024/04/07 07:47:42;;;;;;;8.95;1.25;;;;;;;10.53;100.00;98140.44;4761769;29;21083;-81
2024/04/07 07:50:08;;;;;;;9.27;1.52;;;;;;;10.54;100.00;98142.03;4780175;29;20043;-79
2024/04/07 07:52:34;;;;;;;11.43;1.75;;;;;;;10.54;100.00;98122.75;4750248;29;20034;-80
2024/04/07 07:54:59;;;;;;;9.27;1.25;;;;;;;10.54;100.00;98139.41;4763691;30;20066;-81
2024/04/07 07:57:25;;;;;;;8.55;2.45;;;;;;;10.59;100.00;98149.38;4763663;29;20039;-82
2024/04/07 07:59:51;;;;;;;10.32;1.15;;;;;;;10.62;100.00;98148.16;4745232;30;20050;-84
2024/04/07 08:02:17;;;;;;;13.52;1.65;;;;;;;10.63;100.00;98144.50;4752853;30;20504;-85
2024/04/07 08:04:42;;;;;;;12.25;2.08;;;;;;;10.58;100.00;98139.81;4737720;30;20058;-82
2024/04/07 08:07:08;;;;;;;11.50;1.55;;;;;;;10.57;100.00;98148.78;4741073;30;20638;-79
2024/04/07 08:09:34;;;;;;;7.32;1.17;;;;;;;10.56;100.00;98128.63;4735071;29;20046;-83
2024/04/07 08:12:00;;;;;;;9.35;1.65;;;;;;;10.55;100.00;98153.44;4735690;30;20039;-80
2024/04/07 08:14:26;;;;;;;11.75;1.42;;;;;;;10.60;100.00;98143.09;4772726;29;20035;-83
2024/04/07 08:16:52;;;;;;;7.97;1.30;;;;;;;10.54;100.00;98152.59;4742333;30;20162;-83
2024/04/07 08:19:18;;;;;;;10.70;1.45;;;;;;;10.54;100.00;98160.53;4760457;30;20588;-86
2024/04/07 08:21:43;;;;;;;7.75;1.88;;;;;;;10.58;100.00;98137.19;4725379;29;20048;-86
2024/04/07 08:24:10;;;;;;;12.98;2.03;;;;;;;10.73;100.00;98105.28;4730019;29;20047;-86
2024/04/07 08:26:36;;;;;;;11.02;1.92;;;;;;;10.87;100.00;98137.81;4767017;29;20046;-81
2024/04/07 08:29:02;;;;;;;11.40;1.48;;;;;;;10.94;100.00;98145.72;4750504;29;20114;-80
2024/04/07 08:31:28;;;;;;;7.63;1.85;;;;;;;10.97;100.00;98140.06;4746695;30;20039;-93
2024/04/07 08:33:54;;;;;;;10.68;1.45;;;;;;;10.94;100.00;98150.22;4744618;29;20047;-88
2024/04/07 08:36:20;;;;;;;11.70;1.52;;;;;;;10.97;100.00;98145.34;4734625;30;20116;-86
2024/04/07 08:38:45;;;;;;;18.50;2.90;;;;;;;11.08;100.00;98145.72;4749766;30;20555;-84
2024/04/07 08:41:11;;;;;;;9.57;1.42;;;;;;;11.13;100.00;98156.50;4736479;29;20050;-80
2024/04/07 08:43:42;;;;;;;12.80;2.15;;;;;;;11.21;100.00;98142.25;4748308;30;20134;-81
2024/04/07 08:46:14;;;;;;;8.25;1.35;;;;;;;11.25;100.00;98135.53;4758026;30;20096;-87
2024/04/07 08:48:50;;;;;;;10.35;1.52;;;;;;;11.40;100.00;98148.53;4749545;30;20503;-81
2024/04/07 08:51:17;;;;;;;9.73;1.95;;;;;;;11.37;100.00;98149.75;4731947;30;20046;-79
2024/04/07 08:53:43;;;;;;;13.55;2.55;;;;;;;11.36;100.00;98145.50;4726255;30;20077;-79
2024/04/07 08:56:11;;;;;;;9.07;1.90;;;;;;;11.47;100.00;98136.09;4735939;29;20051;-82
2024/04/07 08:58:40;;;;;;;12.98;1.40;;;;;;;11.48;100.00;98158.09;4773100;30;20440;-80
2024/04/07 09:01:11;;;;;;;9.60;1.65;;;;;;;11.58;100.00;98160.31;4749751;29;20143;-80
2024/04/07 09:03:37;;;;;;;12.38;2.10;;;;;;;11.64;100.00;98157.63;4756672;30;20039;-81
2024/04/07 09:06:03;;;;;;;6.82;1.40;;;;;;;11.67;100.00;98156.41;4752738;29;20045;-79
2024/04/07 09:08:32;;;;;;;12.93;2.13;;;;;;;11.70;100.00;98161.28;4765115;29;20043;-83
2024/04/07 09:10:58;;;;;;;14.43;2.00;;;;;;;11.70;100.00;98181.63;4765512;29;20039;-82
2024/04/07 09:13:24;;;;;;;10.98;1.70;;;;;;;11.56;100.00;98170.28;4769251;29;20031;-91
2024/04/07 09:15:53;;;;;;;14.25;2.40;;;;;;;11.46;100.00;98165.41;4741622;29;20049;-83
2024/04/07 09:18:22;;;;;;;13.02;1.63;;;;;;;11.48;100.00;98172.09;4755951;30;20067;-91
2024/04/07 09:20:48;;;;;;;11.25;1.90;;;;;;;11.35;100.00;98183.53;4756100;29;20074;-91
2024/04/07 09:23:14;;;;;;;18.73;2.05;;;;;;;11.18;100.00;98193.72;4742278;29;20047;-92
2024/04/07 09:25:40;;;;;;;11.55;1.50;;;;;;;10.98;100.00;98199.81;4754283;29;20149;-90
2024/04/07 09:28:10;;;;;;;6.40;1.70;;;;;;;10.77;100.00;98206.91;4760217;29;20490;-90
2024/04/07 09:30:36;;;;;;;7.35;1.27;;;;;;;10.50;100.00;98211.31;4750524;30;20062;-91
2024/04/07 09:33:08;;;;;;;8.43;1.45;;;;;;;10.25;100.00;98207.38;4737949;30;20031;-88
2024/04/07 09:35:34;;;;;;;14.15;1.52;;;;;;;10.09;100.00;98210.34;4737918;30;20043;-91
2024/04/07 09:38:00;;;;;;;11.40;1.40;;;;;;;10.04;100.00;98216.22;4736596;30;20501;-88
2024/04/07 09:40:30;;;;;;;12.05;1.60;;;;;;;9.98;100.00;98220.47;4766067;30;20039;-90
2024/04/07 09:42:59;;;;;;;8.40;1.58;;;;;;;9.95;100.00;98228.78;4765647;29;20103;-93
2024/04/07 09:45:28;;;;;;;5.78;1.10;;;;;;;9.87;100.00;98239.47;4750036;30;20077;-92
2024/04/07 09:47:58;;;;;;;3.55;0.98;;;;;;;9.89;100.00;98240.09;4749914;29;20066;-91
2024/04/07 09:50:48;;;;;;;9.38;0.98;;;;;;;9.83;100.00;98217.09;4748093;30;20043;-86
2024/04/07 09:53:27;;;;;;;4.05;0.90;;;;;;;9.70;100.00;98229.22;4746430;30;21788;-89
2024/04/07 09:55:58;;;;;;;7.93;1.77;;;;;;;9.65;100.00;98231.66;4766847;30;20047;-91
2024/04/07 09:58:34;;;;;;;8.38;2.58;;;;;;;9.75;100.00;98234.72;4745586;30;20104;-91
2024/04/07 10:01:01;;;;;;;15.23;7.45;;;;;;;9.94;100.00;98235.03;4752680;30;20123;-92
2024/04/07 10:03:29;;;;;;;10.73;3.97;;;;;;;10.15;100.00;98220.94;4740432;30;20116;-92
2024/04/07 10:05:56;;;;;;;10.57;3.25;;;;;;;10.38;100.00;98232.97;4756575;30;20044;-90
2024/04/07 10:08:35;;;;;;;15.25;7.13;;;;;;;10.63;100.00;98221.94;4754197;30;20088;-89
2024/04/07 10:11:04;;;;;;;15.63;7.63;;;;;;;10.88;100.00;98239.03;4768353;29;20039;-91
2024/04/07 10:13:33;;;;;;;15.27;3.97;;;;;;;11.01;100.00;98244.34;4749010;30;20096;-91
2024/04/07 10:16:02;;;;;;;11.07;4.53;;;;;;;11.13;100.00;98236.63;4744331;29;20700;-91
2024/04/07 10:18:31;;;;;;;15.70;4.55;;;;;;;11.31;100.00;98248.44;4763557;29;20035;-93
2024/04/07 10:20:59;;;;;;;10.90;2.20;;;;;;;11.36;100.00;98250.47;4749953;29;20508;-88
2024/04/07 10:23:29;;;;;;;16.42;2.63;;;;;;;11.43;100.00;98243.34;4748557;30;20054;-87
2024/04/07 10:26:05;;;;;;;12.95;3.15;;;;;;;11.64;100.00;98252.09;4733256;29;20051;-93
2024/04/07 10:28:46;;;;;;;12.43;2.08;;;;;;;11.84;100.00;98249.41;4739619;29;20039;-92
2024/04/07 10:31:22;;;;;;;12.93;1.60;;;;;;;12.06;100.00;98235.88;4755944;29;20039;-94
2024/04/07 10:33:53;;;;;;;9.63;1.88;;;;;;;12.26;100.00;98243.78;4751761;29;20130;-91
2024/04/07 10:36:25;;;;;;;13.23;3.95;;;;;;;12.50;100.00;98256.53;4739354;30;20047;-92
2024/04/07 10:39:06;;;;;;;10.88;3.00;;;;;;;12.68;100.00;98244.44;4750736;30;20051;-86
2024/04/07 10:41:34;;;;;;;9.63;1.70;;;;;;;12.68;100.00;98231.97;4766224;30;20078;-91
2024/04/07 10:44:14;;;;;;;8.13;1.63;;;;;;;12.72;100.00;98253.56;4740724;29;20040;-90
2024/04/07 10:46:46;;;;;;;11.00;2.60;;;;;;;12.81;100.00;98233.72;4733880;29;20043;-91
2024/04/07 10:49:13;;;;;;;16.67;7.50;;;;;;;12.95;100.00;98241.63;4740381;30;20075;-92
2024/04/07 10:51:39;;;;;;;20.10;9.38;;;;;;;13.03;100.00;98239.50;4751574;30;20043;-93
2024/04/07 10:54:11;;;;;;;15.30;4.50;;;;;;;12.95;100.00;98258.31;4752095;29;20135;-92
2024/04/07 10:56:47;;;;;;;21.25;8.30;;;;;;;12.65;100.00;98264.19;4739295;29;20043;-91
2024/04/07 10:59:23;;;;;;;10.13;1.58;;;;;;;12.31;100.00;98305.94;4740555;29;20646;-93
2024/04/07 11:01:49;;;;;;;7.30;1.38;;;;;;;11.57;100.00;98362.38;4752609;30;20044;-91
2024/04/07 11:04:17;;;;;;;2.92;0.80;;;;;;;10.56;100.00;98347.88;4750483;30;20048;-90
2024/04/07 11:06:44;;;;;;;4.15;0.30;;;;;;;9.65;100.00;98351.13;4756567;29;20039;-90
2024/04/07 11:09:13;;;;;;;3.25;0.40;;;;;;;9.17;100.00;98351.72;4777887;29;20059;-93
2024/04/07 11:11:47;;;;;;;1.83;0.30;;;;;;;9.04;100.00;98345.31;4769184;30;20047;-93
2024/04/07 11:14:15;;;;;;;1.73;0.50;;;;;;;9.12;100.00;98349.66;4754576;30;20101;-92
2024/04/07 11:16:44;;;;;;;2.72;0.63;;;;;;;9.35;100.00;98348.63;4737196;30;20048;-93
2024/04/07 11:19:18;;;;;;;2.58;0.50;;;;;;;9.63;100.00;98347.91;4745374;29;20140;-90
2024/04/07 11:21:56;;;;;;;1.60;0.60;;;;;;;9.75;100.00;98328.88;4754449;29;20058;-92
2024/04/07 11:24:31;;;;;;;0.50;0.43;;;;;;;9.87;100.00;98351.13;4739771;30;20108;-90
2024/04/07 11:27:00;;;;;;;2.83;0.45;;;;;;;10.03;100.00;98357.13;4767530;30;20053;-93
2024/04/07 11:29:28;;;;;;;1.80;0.40;;;;;;;10.26;100.00;98337.53;4768991;30;20039;-89
2024/04/07 11:31:57;;;;;;;1.85;0.50;;;;;;;10.47;100.00;98354.34;4763900;30;20092;-95